createdAt,value
2022-08-05T00:00:52.630Z,4.40
2022-08-05T00:03:20.748Z,3.93
2022-08-05T00:06:06.385Z,3.80
2022-08-05T00:08:39.299Z,4.03
2022-08-05T00:11:20.336Z,3.90
2022-08-05T00:13:53.055Z,3.73
2022-08-05T00:16:35.700Z,4.03
2022-08-05T00:19:05.236Z,4.13
2022-08-05T00:21:34.835Z,4.60
2022-08-05T00:24:10.349Z,5.17
2022-08-05T00:26:39.154Z,3.43
2022-08-05T00:29:14.514Z,4.03
2022-08-05T00:32:10.603Z,3.80
2022-08-05T00:34:54.817Z,3.73
2022-08-05T00:37:18.144Z,4.07
2022-08-05T00:39:58.123Z,3.90
2022-08-05T00:42:34.925Z,4.10
2022-08-05T00:45:03.469Z,4.03
2022-08-05T00:47:53.122Z,4.63
2022-08-05T00:50:20.860Z,4.43
2022-08-05T00:52:49.299Z,3.97
2022-08-05T00:55:18.996Z,4.33
2022-08-05T00:57:58.531Z,4.43
2022-08-05T01:00:27.891Z,4.37
2022-08-05T01:02:55.820Z,4.50
2022-08-05T01:05:24.405Z,4.00
2022-08-05T01:08:41.598Z,3.77
2022-08-05T01:10:51.492Z,4.00
2022-08-05T01:13:27.257Z,4.20
2022-08-05T01:16:28.323Z,4.50
2022-08-05T01:19:07.599Z,4.30
2022-08-05T01:21:58.233Z,3.40
2022-08-05T01:24:59.756Z,4.47
2022-08-05T01:27:59.545Z,4.40
2022-08-05T01:30:34.217Z,4.77
2022-08-05T01:33:06.291Z,3.60
2022-08-05T01:35:50.957Z,4.17
2022-08-05T01:38:27.382Z,4.00
2022-08-05T01:40:59.765Z,5.00
2022-08-05T01:43:29.983Z,4.57
2022-08-05T01:46:07.387Z,4.77
2022-08-05T01:48:49.982Z,4.80
2022-08-05T01:51:19.431Z,4.37
2022-08-05T01:53:57.923Z,4.33
2022-08-05T01:58:10.295Z,4.73
2022-08-05T01:59:23.144Z,4.53
2022-08-05T02:01:55.742Z,4.40
2022-08-05T02:04:29.981Z,4.53
2022-08-05T02:06:59.827Z,4.20
2022-08-05T02:09:31.658Z,5.23
2022-08-05T02:12:06.766Z,5.17
2022-08-05T02:14:44.750Z,4.73
2022-08-05T02:18:27.745Z,4.93
2022-08-05T02:20:15.857Z,4.47
2022-08-05T02:22:51.404Z,5.10
2022-08-05T02:25:33.369Z,4.10
2022-08-05T02:28:17.174Z,4.53
2022-08-05T02:30:59.701Z,4.70
2022-08-05T02:33:36.108Z,5.43
2022-08-05T02:36:10.036Z,5.20
2022-08-05T02:38:45.263Z,4.60
2022-08-05T02:41:23.318Z,4.50
2022-08-05T02:44:02.786Z,4.90
2022-08-05T02:46:35.146Z,5.17
2022-08-05T02:49:06.956Z,4.10
2022-08-05T02:52:03.822Z,4.63
2022-08-05T02:54:35.726Z,5.10
2022-08-05T02:57:10.177Z,4.20
2022-08-05T02:59:55.072Z,4.33
2022-08-05T03:02:29.855Z,4.50
2022-08-05T03:04:59.897Z,4.93
2022-08-05T03:08:00.912Z,4.70
2022-08-05T03:10:21.801Z,4.57
2022-08-05T03:12:52.989Z,4.73
2022-08-05T03:15:23.507Z,4.13
2022-08-05T03:17:53.880Z,4.50
2022-08-05T03:20:25.019Z,4.77
2022-08-05T03:22:57.151Z,4.73
2022-08-05T03:26:03.962Z,4.83
2022-08-05T03:28:18.802Z,4.70
2022-08-05T03:30:49.479Z,4.20
2022-08-05T03:33:17.736Z,4.40
2022-08-05T03:35:48.468Z,4.60
2022-08-05T03:38:32.935Z,4.23
2022-08-05T03:41:10.696Z,4.53
2022-08-05T03:44:09.571Z,4.73
2022-08-05T03:46:29.682Z,4.27
2022-08-05T03:48:58.740Z,4.10
2022-08-05T03:52:36.557Z,4.50
2022-08-05T03:55:54.207Z,4.30
2022-08-05T03:57:16.728Z,4.40
2022-08-05T03:59:54.882Z,4.30
2022-08-05T04:02:37.841Z,4.30
2022-08-05T04:05:09.922Z,4.47
2022-08-05T04:07:57.232Z,4.43
2022-08-05T04:10:27.868Z,4.20
2022-08-05T04:12:58.948Z,4.17
2022-08-05T04:15:27.728Z,4.80
2022-08-05T04:18:03.258Z,4.80
2022-08-05T04:20:31.078Z,5.83
2022-08-05T04:23:01.160Z,5.70
2022-08-05T04:25:57.425Z,4.20
2022-08-05T04:28:17.279Z,4.53
2022-08-05T04:30:45.317Z,4.73
2022-08-05T04:33:13.289Z,5.60
2022-08-05T04:36:15.619Z,5.07
2022-08-05T04:38:39.440Z,6.63
2022-08-05T04:41:09.602Z,4.50
2022-08-05T04:43:46.687Z,4.73
2022-08-05T04:46:27.881Z,5.33
2022-08-05T04:48:58.720Z,6.17
2022-08-05T04:51:30.523Z,4.10
2022-08-05T04:54:01.365Z,4.23
2022-08-05T04:56:34.325Z,4.43
2022-08-05T04:59:21.770Z,4.60
2022-08-05T05:02:35.252Z,4.33
2022-08-05T05:04:43.954Z,4.50
2022-08-05T05:07:20.344Z,3.43
2022-08-05T05:09:58.448Z,4.17
2022-08-05T05:12:27.357Z,3.90
2022-08-05T05:14:55.597Z,5.37
2022-08-05T05:17:24.850Z,4.50
2022-08-05T05:20:12.550Z,4.70
2022-08-05T05:22:41.117Z,5.17
2022-08-05T05:25:16.110Z,4.40
2022-08-05T05:27:53.754Z,5.17
2022-08-05T05:30:31.107Z,4.20
2022-08-05T05:33:03.750Z,4.40
2022-08-05T05:35:44.930Z,4.40
2022-08-05T05:38:13.461Z,4.30
2022-08-05T05:40:50.110Z,4.10
2022-08-05T05:43:27.573Z,4.47
2022-08-05T05:46:12.128Z,4.10
2022-08-05T05:48:44.512Z,4.13
2022-08-05T05:51:15.242Z,3.70
2022-08-05T05:53:54.037Z,3.90
2022-08-05T05:56:32.307Z,4.20
2022-08-05T05:59:05.287Z,4.10
2022-08-05T06:01:37.551Z,3.83
2022-08-05T06:04:07.165Z,4.40
2022-08-05T06:06:35.199Z,4.27
2022-08-05T06:09:03.856Z,4.57
2022-08-05T06:11:33.359Z,4.50
2022-08-05T06:14:02.162Z,4.00
2022-08-05T06:16:36.602Z,4.20
2022-08-05T06:19:07.414Z,4.27
2022-08-05T06:21:38.718Z,3.93
2022-08-05T06:24:11.759Z,3.97
2022-08-05T06:26:51.406Z,4.33
2022-08-05T06:29:42.965Z,3.83
2022-08-05T06:32:21.281Z,3.40
2022-08-05T06:34:56.274Z,3.90
2022-08-05T06:37:55.603Z,3.60
2022-08-05T06:40:13.869Z,3.20
2022-08-05T06:42:46.868Z,3.17
2022-08-05T06:45:20.654Z,3.60
2022-08-05T06:48:37.317Z,3.90
2022-08-05T06:50:36.641Z,3.57
2022-08-05T06:53:11.537Z,3.07
2022-08-05T06:55:47.502Z,3.43
2022-08-05T06:58:30.203Z,3.00
2022-08-05T07:01:04.876Z,2.73
2022-08-05T07:03:33.518Z,2.97
2022-08-05T07:06:05.447Z,3.43
2022-08-05T07:08:41.981Z,2.80
2022-08-05T07:11:15.509Z,3.33
2022-08-05T07:14:02.607Z,3.00
2022-08-05T07:18:00.161Z,3.30
2022-08-05T07:22:27.636Z,2.30
2022-08-05T07:24:57.060Z,2.90
2022-08-05T07:27:27.313Z,2.80
2022-08-05T07:30:30.115Z,2.83
2022-08-05T07:32:58.781Z,3.03
2022-08-05T07:36:05.300Z,2.50
2022-08-05T07:38:32.138Z,2.50
2022-08-05T07:42:06.893Z,2.50
2022-08-05T07:43:51.488Z,2.43
2022-08-05T07:46:25.063Z,2.83
2022-08-05T07:49:01.834Z,2.50
2022-08-05T07:51:40.663Z,2.77
2022-08-05T07:54:18.846Z,2.60
2022-08-05T07:57:01.793Z,2.50
2022-08-05T07:59:40.551Z,3.03
2022-08-05T08:02:16.620Z,2.70
2022-08-05T08:04:49.777Z,2.63
2022-08-05T08:07:22.814Z,2.83
2022-08-05T08:09:53.045Z,2.53
2022-08-05T08:12:27.419Z,2.67
2022-08-05T08:15:02.513Z,2.70
2022-08-05T08:17:32.668Z,2.53
2022-08-05T08:20:43.455Z,2.97
2022-08-05T08:22:52.566Z,2.60
2022-08-05T08:25:27.082Z,2.50
2022-08-05T08:28:18.088Z,2.80
2022-08-05T08:30:47.704Z,2.50
2022-08-05T08:33:19.138Z,2.60
2022-08-05T08:35:53.778Z,2.70
2022-08-05T08:38:37.643Z,2.67
2022-08-05T08:41:10.994Z,2.93
2022-08-05T08:45:18.291Z,2.43
2022-08-05T08:46:32.598Z,2.83
2022-08-05T08:50:03.718Z,2.50
2022-08-05T08:52:03.553Z,2.60
2022-08-05T08:54:36.446Z,2.20
2022-08-05T08:57:11.216Z,3.10
2022-08-05T08:59:41.707Z,3.87
2022-08-05T09:02:16.770Z,2.60
2022-08-05T09:04:57.922Z,2.30
2022-08-05T09:07:39.763Z,3.77
2022-08-05T09:10:17.854Z,2.23
2022-08-05T09:12:50.983Z,2.90
2022-08-05T09:15:21.061Z,2.63
2022-08-05T09:17:52.937Z,2.90
2022-08-05T09:20:37.836Z,2.93
2022-08-05T09:23:09.732Z,2.70
2022-08-05T09:26:01.629Z,2.70
2022-08-05T09:28:34.021Z,2.73
2022-08-05T09:31:43.327Z,2.43
2022-08-05T09:33:54.911Z,3.00
2022-08-05T09:36:27.751Z,2.80
2022-08-05T09:39:03.218Z,2.57
2022-08-05T09:41:33.154Z,2.27
2022-08-05T09:44:06.223Z,2.60
2022-08-05T09:46:35.411Z,2.20
2022-08-05T09:49:19.686Z,2.77
2022-08-05T09:51:50.116Z,2.43
2022-08-05T09:54:21.395Z,2.40
2022-08-05T09:57:01.775Z,3.83
2022-08-05T09:59:35.099Z,11.77
2022-08-05T10:02:05.918Z,3.00
2022-08-05T10:04:39.655Z,2.47
2022-08-05T10:07:14.262Z,3.03
2022-08-05T10:10:14.020Z,2.60
2022-08-05T10:12:49.750Z,2.90
2022-08-05T10:15:23.262Z,2.87
2022-08-05T10:18:06.644Z,4.57
2022-08-05T10:20:38.036Z,16.90
2022-08-05T10:23:08.916Z,3.93
2022-08-05T10:25:56.200Z,3.60
2022-08-05T10:28:29.115Z,2.90
2022-08-05T10:32:50.892Z,3.20
2022-08-05T10:33:52.295Z,3.37
2022-08-05T10:36:23.684Z,2.87
2022-08-05T10:39:01.089Z,4.07
2022-08-05T10:41:46.512Z,3.27
2022-08-05T10:44:19.304Z,3.40
2022-08-05T10:46:51.029Z,4.97
2022-08-05T10:49:27.122Z,4.20
2022-08-05T10:52:03.288Z,5.00
2022-08-05T10:54:56.443Z,4.37
2022-08-05T10:57:31.863Z,3.90
2022-08-05T11:00:19.601Z,5.90
2022-08-05T11:03:24.893Z,6.87
2022-08-05T11:06:15.473Z,4.67
2022-08-05T11:09:45.082Z,4.60
2022-08-05T11:12:50.303Z,4.57
2022-08-05T11:16:00.623Z,3.83
2022-08-05T11:18:27.236Z,3.63
2022-08-05T11:20:59.088Z,4.43
2022-08-05T11:24:02.297Z,4.37
2022-08-05T11:26:28.101Z,3.23
2022-08-05T11:29:06.824Z,3.00
2022-08-05T11:31:56.563Z,2.83
2022-08-05T11:34:38.685Z,2.90
2022-08-05T11:38:29.986Z,3.33
2022-08-05T11:40:00.808Z,3.10
2022-08-05T11:42:40.544Z,2.83
2022-08-05T11:45:23.039Z,2.97
2022-08-05T11:47:58.797Z,2.70
2022-08-05T11:50:27.125Z,2.27
2022-08-05T11:52:58.018Z,3.03
2022-08-05T11:55:31.659Z,2.50
2022-08-05T11:58:11.012Z,2.60
2022-08-05T12:00:44.477Z,2.70
2022-08-05T12:03:23.970Z,2.30
2022-08-05T12:06:01.787Z,2.40
2022-08-05T12:08:32.809Z,2.50
2022-08-05T12:11:06.220Z,2.83
2022-08-05T12:13:49.502Z,2.90
2022-08-05T12:16:25.585Z,2.80
2022-08-05T12:20:16.871Z,3.00
2022-08-05T12:22:27.138Z,3.40
2022-08-05T12:24:57.385Z,2.70
2022-08-05T12:27:27.117Z,2.70
2022-08-05T12:30:03.368Z,2.83
2022-08-05T12:32:35.216Z,3.30
2022-08-05T12:35:07.487Z,3.10
2022-08-05T12:37:36.665Z,3.40
2022-08-05T12:40:10.536Z,3.20
2022-08-05T12:42:40.722Z,3.33
2022-08-05T12:45:10.696Z,2.57
2022-08-05T12:48:01.074Z,2.77
2022-08-05T12:50:30.963Z,3.10
2022-08-05T12:52:59.969Z,3.80
2022-08-05T12:55:32.905Z,2.90
2022-08-05T12:58:50.396Z,2.93
2022-08-05T13:02:00.939Z,2.93
2022-08-05T13:03:41.928Z,3.17
2022-08-05T13:06:16.141Z,3.00
2022-08-05T13:08:50.595Z,3.57
2022-08-05T13:11:59.634Z,3.33
2022-08-05T13:14:36.334Z,3.47
2022-08-05T13:17:09.827Z,3.10
2022-08-05T13:19:40.424Z,3.67
2022-08-05T13:22:28.557Z,2.83
2022-08-05T13:25:00.492Z,3.60
2022-08-05T13:27:35.671Z,3.00
2022-08-05T13:30:33.750Z,2.40
2022-08-05T13:32:56.601Z,2.63
2022-08-05T13:35:42.805Z,2.50
2022-08-05T13:38:30.179Z,3.20
2022-08-05T13:41:01.833Z,3.03
2022-08-05T13:43:44.396Z,2.83
2022-08-05T13:46:37.678Z,3.20
2022-08-05T13:49:10.291Z,3.30
2022-08-05T13:51:46.629Z,2.80
2022-08-05T13:54:16.134Z,3.50
2022-08-05T13:56:51.487Z,2.60
2022-08-05T13:59:24.276Z,3.07
2022-08-05T14:01:57.607Z,2.37
2022-08-05T14:04:49.098Z,3.00
2022-08-05T14:07:56.510Z,2.40
2022-08-05T14:10:09.313Z,2.20
2022-08-05T14:12:37.461Z,4.03
2022-08-05T14:16:04.794Z,3.20
2022-08-05T14:17:59.713Z,2.70
2022-08-05T14:20:29.427Z,3.07
2022-08-05T14:22:58.594Z,2.73
2022-08-05T14:25:27.936Z,2.70
2022-08-05T14:27:56.636Z,3.07
2022-08-05T14:30:27.982Z,2.57
2022-08-05T14:32:56.876Z,2.97
2022-08-05T14:35:50.123Z,3.90
2022-08-05T14:38:33.186Z,2.93
2022-08-05T14:41:05.705Z,3.03
2022-08-05T14:44:00.211Z,4.40
2022-08-05T14:46:22.244Z,3.07
2022-08-05T14:48:50.278Z,3.50
2022-08-05T14:51:18.539Z,3.07
2022-08-05T14:54:26.843Z,2.67
2022-08-05T14:56:38.125Z,2.80
2022-08-05T14:59:12.786Z,3.10
2022-08-05T15:01:47.946Z,2.77
2022-08-05T15:04:17.236Z,2.53
2022-08-05T15:06:49.024Z,3.13
2022-08-05T15:09:51.198Z,3.20
2022-08-05T15:12:08.940Z,2.60
2022-08-05T15:14:48.415Z,3.30
2022-08-05T15:17:46.221Z,3.67
2022-08-05T15:20:07.580Z,3.23
2022-08-05T15:22:37.815Z,3.47
2022-08-05T15:25:13.654Z,3.67
2022-08-05T15:27:43.063Z,3.27
2022-08-05T15:30:20.091Z,4.03
2022-08-05T15:32:50.232Z,3.73
2022-08-05T15:35:18.321Z,3.73
2022-08-05T15:38:34.338Z,3.77
2022-08-05T15:40:58.278Z,4.10
2022-08-05T15:43:26.656Z,3.43
2022-08-05T15:46:00.638Z,4.13
2022-08-05T15:48:29.932Z,3.80
2022-08-05T15:50:58.264Z,4.10
2022-08-05T15:53:38.055Z,3.67
2022-08-05T15:56:22.438Z,4.10
2022-08-05T15:58:50.759Z,4.83
2022-08-05T16:01:19.062Z,3.83
2022-08-05T16:03:50.300Z,4.93
2022-08-05T16:06:19.828Z,4.73
2022-08-05T16:08:48.325Z,4.10
2022-08-05T16:11:21.112Z,4.03
2022-08-05T16:14:09.028Z,4.20
2022-08-05T16:16:37.043Z,3.90
2022-08-05T16:19:04.979Z,4.20
2022-08-05T16:22:00.028Z,3.83
2022-08-05T16:24:39.465Z,3.87
2022-08-05T16:27:10.218Z,3.60
2022-08-05T16:29:50.438Z,3.53
2022-08-05T16:32:28.406Z,4.47
2022-08-05T16:34:58.756Z,4.23
2022-08-05T16:38:01.942Z,4.10
2022-08-05T16:40:25.034Z,4.00
2022-08-05T16:42:59.820Z,4.37
2022-08-05T16:46:06.168Z,4.07
2022-08-05T16:48:26.193Z,4.00
2022-08-05T16:51:01.514Z,4.30
2022-08-05T16:53:32.097Z,4.67
2022-08-05T16:56:00.480Z,4.87
2022-08-05T16:58:29.621Z,7.33
2022-08-05T17:00:57.674Z,4.67
2022-08-05T17:03:27.119Z,4.60
2022-08-05T17:05:59.418Z,4.83
2022-08-05T17:08:36.001Z,4.13
2022-08-05T17:11:17.225Z,4.07
2022-08-05T17:13:47.012Z,4.40
2022-08-05T17:16:33.797Z,4.20
2022-08-05T17:19:03.332Z,4.00
2022-08-05T17:21:36.866Z,3.57
2022-08-05T17:24:07.633Z,3.33
2022-08-05T17:26:48.415Z,2.70
2022-08-05T17:29:17.635Z,2.90
2022-08-05T17:31:58.960Z,2.53
2022-08-05T17:34:30.130Z,3.27
2022-08-05T17:37:00.606Z,2.97
2022-08-05T17:39:33.949Z,1.87
2022-08-05T17:42:17.324Z,1.70
2022-08-05T17:44:53.202Z,1.90
2022-08-05T17:47:22.038Z,2.43
2022-08-05T17:49:52.095Z,2.10
2022-08-05T17:52:31.655Z,2.20
2022-08-05T17:54:59.501Z,1.70
2022-08-05T17:57:28.007Z,1.63
2022-08-05T18:00:05.306Z,1.80
2022-08-05T18:02:34.268Z,1.57
2022-08-05T18:05:07.622Z,2.03
2022-08-05T18:07:42.174Z,1.83
2022-08-05T18:10:14.067Z,1.57
2022-08-05T18:12:48.423Z,1.43
2022-08-05T18:15:17.603Z,1.47
2022-08-05T18:18:00.710Z,1.30
2022-08-05T18:20:32.129Z,1.13
2022-08-05T18:23:08.725Z,1.40
2022-08-05T18:25:38.969Z,1.17
2022-08-05T18:28:07.234Z,1.00
2022-08-05T18:30:38.986Z,1.20
2022-08-05T18:33:08.567Z,0.90
2022-08-05T18:35:59.972Z,0.70
2022-08-05T18:38:30.615Z,1.07
2022-08-05T18:41:56.634Z,1.00
2022-08-05T18:43:48.567Z,1.20
2022-08-05T18:46:20.276Z,1.20
2022-08-05T18:48:52.257Z,1.37
2022-08-05T18:52:03.137Z,1.30
2022-08-05T18:54:25.978Z,0.93
2022-08-05T18:57:00.807Z,1.17
2022-08-05T18:59:43.652Z,1.37
2022-08-05T19:02:27.166Z,1.50
2022-08-05T19:05:02.751Z,1.17
2022-08-05T19:07:47.892Z,1.47
2022-08-05T19:10:16.132Z,1.50
2022-08-05T19:12:45.919Z,1.10
2022-08-05T19:15:57.818Z,1.40
2022-08-05T19:18:09.625Z,1.37
2022-08-05T19:20:41.795Z,1.23
2022-08-05T19:23:22.591Z,1.60
2022-08-05T19:26:03.243Z,2.47
2022-08-05T19:28:32.738Z,2.30
2022-08-05T19:31:01.358Z,3.00
2022-08-05T19:33:38.017Z,2.53
2022-08-05T19:36:09.311Z,2.50
2022-08-05T19:38:37.156Z,1.90
2022-08-05T19:41:06.689Z,1.87
2022-08-05T19:44:06.343Z,1.90
2022-08-05T19:46:30.315Z,1.80
2022-08-05T19:49:00.869Z,1.50
2022-08-05T19:52:04.863Z,1.30
2022-08-05T19:54:27.166Z,1.97
2022-08-05T19:57:02.320Z,1.40
2022-08-05T20:00:00.386Z,1.80
2022-08-05T20:02:22.154Z,1.97
2022-08-05T20:04:52.296Z,1.70
2022-08-05T20:07:45.687Z,1.67
2022-08-05T20:10:11.711Z,2.20
2022-08-05T20:12:47.568Z,1.90
2022-08-05T20:15:47.932Z,1.87
2022-08-05T20:18:10.671Z,2.00
2022-08-05T20:20:55.100Z,1.80
2022-08-05T20:23:23.659Z,1.97
2022-08-05T20:26:08.850Z,1.70
2022-08-05T20:28:44.651Z,1.50
2022-08-05T20:31:12.648Z,1.97
2022-08-05T20:33:42.293Z,1.80
2022-08-05T20:36:12.130Z,2.13
2022-08-05T20:38:53.980Z,1.43
2022-08-05T20:41:27.339Z,1.93
2022-08-05T20:44:19.436Z,1.90
2022-08-05T20:46:59.105Z,1.40
2022-08-05T20:49:27.497Z,1.97
2022-08-05T20:51:57.927Z,1.87
2022-08-05T20:54:43.091Z,2.03
2022-08-05T20:57:15.022Z,2.40
2022-08-05T21:00:21.340Z,1.90
2022-08-05T21:02:55.471Z,1.97
2022-08-05T21:05:25.090Z,2.17
2022-08-05T21:07:54.281Z,2.27
2022-08-05T21:10:24.006Z,1.70
2022-08-05T21:12:57.894Z,2.07
2022-08-05T21:15:37.035Z,1.83
2022-08-05T21:18:05.231Z,2.27
2022-08-05T21:20:34.180Z,1.70
2022-08-05T21:23:03.964Z,1.90
2022-08-05T21:25:33.691Z,2.00
2022-08-05T21:28:02.566Z,2.00
2022-08-05T21:30:31.354Z,1.80
2022-08-05T21:32:59.723Z,1.67
2022-08-05T21:35:55.457Z,1.77
2022-08-05T21:38:19.199Z,1.67
2022-08-05T21:40:47.136Z,1.60
2022-08-05T21:43:17.658Z,2.17
2022-08-05T21:45:57.796Z,2.03
2022-08-05T21:48:28.479Z,2.03
2022-08-05T21:50:57.333Z,2.00
2022-08-05T21:53:27.461Z,2.10
2022-08-05T21:56:05.182Z,1.97
2022-08-05T21:58:57.001Z,1.80
2022-08-05T22:01:26.445Z,2.10
2022-08-05T22:03:54.568Z,2.13
2022-08-05T22:06:35.559Z,2.10
2022-08-05T22:09:14.667Z,1.90
2022-08-05T22:11:43.441Z,1.70
2022-08-05T22:14:35.204Z,2.57
2022-08-05T22:17:06.998Z,2.17
2022-08-05T22:20:00.976Z,1.73
2022-08-05T22:22:27.812Z,2.17
2022-08-05T22:25:21.247Z,2.10
2022-08-05T22:28:09.184Z,1.87
2022-08-05T22:30:55.252Z,2.10
2022-08-05T22:33:57.973Z,1.87
2022-08-05T22:36:14.738Z,2.20
2022-08-05T22:38:43.698Z,4.17
2022-08-05T22:42:05.632Z,2.53
2022-08-05T22:44:12.016Z,2.00
2022-08-05T22:46:40.675Z,2.10
2022-08-05T22:49:12.335Z,1.50
2022-08-05T22:52:05.276Z,2.00
2022-08-05T22:54:39.712Z,1.77
2022-08-05T22:57:19.475Z,1.83
2022-08-05T22:59:53.604Z,1.93
2022-08-05T23:02:29.421Z,2.00
2022-08-05T23:04:58.283Z,1.73
2022-08-05T23:07:30.433Z,1.60
2022-08-05T23:10:01.986Z,1.70
2022-08-05T23:12:33.220Z,1.60
2022-08-05T23:15:03.464Z,1.63
2022-08-05T23:17:34.143Z,1.60
2022-08-05T23:20:16.537Z,1.87
2022-08-05T23:22:47.445Z,1.30
2022-08-05T23:25:17.000Z,1.40
2022-08-05T23:28:07.104Z,1.13
2022-08-05T23:30:40.560Z,1.10
2022-08-05T23:33:16.396Z,1.10
2022-08-05T23:35:51.009Z,1.30
2022-08-05T23:38:19.371Z,1.20
2022-08-05T23:40:50.116Z,1.50
2022-08-05T23:43:25.172Z,1.60
2022-08-05T23:46:20.689Z,1.40
2022-08-05T23:49:00.068Z,0.97
2022-08-05T23:51:52.535Z,1.00
2022-08-05T23:54:25.586Z,1.13
2022-08-05T23:56:55.412Z,1.10
2022-08-05T23:59:27.788Z,1.47
